createdAt,value
2018-03-30T00:00:11.686Z,954.44
2018-03-30T00:01:11.677Z,954.43
2018-03-30T00:02:11.672Z,954.46
2018-03-30T00:03:11.664Z,954.45
2018-03-30T00:04:11.657Z,954.44
2018-03-30T00:05:11.647Z,954.47
2018-03-30T00:06:11.646Z,954.49
2018-03-30T00:07:11.635Z,954.50
2018-03-30T00:08:11.630Z,954.53
2018-03-30T00:09:11.623Z,954.47
2018-03-30T00:10:11.616Z,954.49
2018-03-30T00:11:11.610Z,954.51
2018-03-30T00:12:11.606Z,954.56
2018-03-30T00:13:11.595Z,954.57
2018-03-30T00:14:11.589Z,954.57
2018-03-30T00:15:11.582Z,954.60
2018-03-30T00:16:11.576Z,954.61
2018-03-30T00:17:11.565Z,954.58
2018-03-30T00:18:11.562Z,954.58
2018-03-30T00:19:11.561Z,954.59
2018-03-30T00:20:11.546Z,954.61
2018-03-30T00:21:11.540Z,954.60
2018-03-30T00:22:11.533Z,954.61
2018-03-30T00:23:11.526Z,954.64
2018-03-30T00:24:11.521Z,954.62
2018-03-30T00:25:11.515Z,954.61
2018-03-30T00:26:11.505Z,954.58
2018-03-30T00:27:11.504Z,954.56
2018-03-30T00:28:11.492Z,954.56
2018-03-30T00:29:11.484Z,954.55
2018-03-30T00:30:11.480Z,954.54
2018-03-30T00:31:13.250Z,954.58
2018-03-30T00:32:11.462Z,954.57
2018-03-30T00:33:11.457Z,954.56
2018-03-30T00:34:11.450Z,954.55
2018-03-30T00:35:11.446Z,954.54
2018-03-30T00:36:11.436Z,954.53
2018-03-30T00:37:11.431Z,954.55
2018-03-30T00:38:11.429Z,954.52
2018-03-30T00:39:11.417Z,954.48
2018-03-30T00:40:11.407Z,954.48
2018-03-30T00:41:11.400Z,954.50
2018-03-30T00:42:11.392Z,954.47
2018-03-30T00:43:11.387Z,954.45
2018-03-30T00:44:11.378Z,954.43
2018-03-30T00:45:11.372Z,954.41
2018-03-30T00:46:11.365Z,954.40
2018-03-30T00:47:11.360Z,954.40
2018-03-30T00:48:11.350Z,954.41
2018-03-30T00:49:11.340Z,954.43
2018-03-30T00:50:11.335Z,954.48
2018-03-30T00:51:11.327Z,954.49
2018-03-30T00:52:11.320Z,954.46
2018-03-30T00:53:11.314Z,954.45
2018-03-30T00:54:11.308Z,954.44
2018-03-30T00:55:11.303Z,954.43
2018-03-30T00:56:11.291Z,954.45
2018-03-30T00:57:11.283Z,954.45
2018-03-30T00:58:11.278Z,954.48
2018-03-30T00:59:11.281Z,954.44
2018-03-30T01:00:11.262Z,954.47
2018-03-30T01:01:11.254Z,954.47
2018-03-30T01:02:11.248Z,954.47
2018-03-30T01:03:11.241Z,954.50
2018-03-30T01:04:11.234Z,954.50
2018-03-30T01:05:11.227Z,954.50
2018-03-30T01:06:11.220Z,954.43
2018-03-30T01:07:11.209Z,954.43
2018-03-30T01:08:11.202Z,954.44
2018-03-30T01:09:11.194Z,954.45
2018-03-30T01:10:11.189Z,954.39
2018-03-30T01:11:11.180Z,954.41
2018-03-30T01:12:11.169Z,954.40
2018-03-30T01:13:11.164Z,954.33
2018-03-30T01:14:11.164Z,954.32
2018-03-30T01:15:11.161Z,954.34
2018-03-30T01:16:11.140Z,954.36
2018-03-30T01:17:11.138Z,954.32
2018-03-30T01:18:11.127Z,954.32
2018-03-30T01:19:11.120Z,954.30
2018-03-30T01:20:11.113Z,954.31
2018-03-30T01:21:11.105Z,954.33
2018-03-30T01:22:11.096Z,954.29
2018-03-30T01:23:11.090Z,954.26
2018-03-30T01:24:11.080Z,954.31
2018-03-30T01:25:11.072Z,954.30
2018-03-30T01:26:11.070Z,954.23
2018-03-30T01:27:11.069Z,954.24
2018-03-30T01:28:11.050Z,954.27
2018-03-30T01:29:11.044Z,954.25
2018-03-30T01:30:11.045Z,954.27
2018-03-30T01:31:11.030Z,954.28
2018-03-30T01:32:11.032Z,954.28
2018-03-30T01:33:11.013Z,954.28
2018-03-30T01:34:11.007Z,954.28
2018-03-30T01:35:11.000Z,954.26
2018-03-30T01:36:10.990Z,954.25
2018-03-30T01:37:10.982Z,954.25
2018-03-30T01:38:10.978Z,954.24
2018-03-30T01:39:10.971Z,954.17
2018-03-30T01:40:10.961Z,954.23
2018-03-30T01:41:10.951Z,954.20
2018-03-30T01:42:10.950Z,954.20
2018-03-30T01:43:10.938Z,954.21
2018-03-30T01:44:10.927Z,954.18
2018-03-30T01:45:10.926Z,954.17
2018-03-30T01:46:10.917Z,954.16
2018-03-30T01:47:10.906Z,954.12
2018-03-30T01:48:10.904Z,954.12
2018-03-30T01:49:10.893Z,954.12
2018-03-30T01:50:10.885Z,954.08
2018-03-30T01:51:10.876Z,954.13
2018-03-30T01:52:10.895Z,954.10
2018-03-30T01:53:10.858Z,954.12
2018-03-30T01:54:10.851Z,954.09
2018-03-30T01:55:10.844Z,954.07
2018-03-30T01:56:10.841Z,954.11
2018-03-30T01:57:10.827Z,954.07
2018-03-30T01:58:10.822Z,954.05
2018-03-30T01:59:10.815Z,954.10
2018-03-30T02:00:10.804Z,954.02
2018-03-30T02:01:10.797Z,954.00
2018-03-30T02:02:10.794Z,954.01
2018-03-30T02:03:10.784Z,953.97
2018-03-30T02:04:10.775Z,953.95
2018-03-30T02:05:10.769Z,953.94
2018-03-30T02:06:10.755Z,953.91
2018-03-30T02:07:10.748Z,953.95
2018-03-30T02:08:10.741Z,953.89
2018-03-30T02:09:10.752Z,953.93
2018-03-30T02:10:10.737Z,953.92
2018-03-30T02:11:10.753Z,953.94
2018-03-30T02:12:10.709Z,953.88
2018-03-30T02:13:10.704Z,953.88
2018-03-30T02:14:10.692Z,953.85
2018-03-30T02:15:10.692Z,953.85
2018-03-30T02:16:10.681Z,953.82
2018-03-30T02:17:10.690Z,953.82
2018-03-30T02:18:10.666Z,953.77
2018-03-30T02:19:10.673Z,953.77
2018-03-30T02:20:10.654Z,953.83
2018-03-30T02:21:10.637Z,953.81
2018-03-30T02:22:10.632Z,953.81
2018-03-30T02:23:10.623Z,953.77
2018-03-30T02:24:10.626Z,953.79
2018-03-30T02:25:10.627Z,953.80
2018-03-30T02:26:10.614Z,953.79
2018-03-30T02:27:10.590Z,953.75
2018-03-30T02:28:10.590Z,953.77
2018-03-30T02:29:10.576Z,953.76
2018-03-30T02:30:10.569Z,953.73
2018-03-30T02:31:10.561Z,953.72
2018-03-30T02:32:10.553Z,953.71
2018-03-30T02:33:10.552Z,953.70
2018-03-30T02:34:10.541Z,953.69
2018-03-30T02:35:10.532Z,953.68
2018-03-30T02:36:10.527Z,953.65
2018-03-30T02:37:10.513Z,953.65
2018-03-30T02:38:10.506Z,953.69
2018-03-30T02:39:10.497Z,953.69
2018-03-30T02:40:10.509Z,953.66
2018-03-30T02:41:10.481Z,953.61
2018-03-30T02:42:10.480Z,953.61
2018-03-30T02:43:10.472Z,953.62
2018-03-30T02:44:10.458Z,953.57
2018-03-30T02:45:10.460Z,953.59
2018-03-30T02:46:10.460Z,953.55
2018-03-30T02:47:10.434Z,953.53
2018-03-30T02:48:10.434Z,953.52
2018-03-30T02:49:10.416Z,953.50
2018-03-30T02:50:10.410Z,953.50
2018-03-30T02:51:10.403Z,953.46
2018-03-30T02:52:10.395Z,953.45
2018-03-30T02:53:10.386Z,953.43
2018-03-30T02:54:10.391Z,953.41
2018-03-30T02:55:10.376Z,953.39
2018-03-30T02:56:10.374Z,953.41
2018-03-30T02:57:10.356Z,953.41
2018-03-30T02:58:10.349Z,953.41
2018-03-30T02:59:10.342Z,953.41
2018-03-30T03:00:10.335Z,953.51
2018-03-30T03:01:10.323Z,953.52
2018-03-30T03:02:10.336Z,953.50
2018-03-30T03:03:10.309Z,953.51
2018-03-30T03:04:10.302Z,953.49
2018-03-30T03:05:10.292Z,953.50
2018-03-30T03:06:10.285Z,953.50
2018-03-30T03:07:10.294Z,953.48
2018-03-30T03:08:10.268Z,953.54
2018-03-30T03:09:10.268Z,953.52
2018-03-30T03:10:10.254Z,953.51
2018-03-30T03:11:10.255Z,953.50
2018-03-30T03:12:10.235Z,953.53
2018-03-30T03:13:10.233Z,953.52
2018-03-30T03:14:10.220Z,953.53
2018-03-30T03:15:10.213Z,953.53
2018-03-30T03:16:10.212Z,953.49
2018-03-30T03:17:10.195Z,953.49
2018-03-30T03:18:10.195Z,953.55
2018-03-30T03:19:10.203Z,953.51
2018-03-30T03:20:10.185Z,953.52
2018-03-30T03:21:10.166Z,953.50
2018-03-30T03:22:10.161Z,953.53
2018-03-30T03:23:10.150Z,953.50
2018-03-30T03:24:10.141Z,953.51
2018-03-30T03:25:10.132Z,953.48
2018-03-30T03:26:10.122Z,953.50
2018-03-30T03:27:10.119Z,953.52
2018-03-30T03:28:10.132Z,953.52
2018-03-30T03:29:10.100Z,953.51
2018-03-30T03:30:10.097Z,953.51
2018-03-30T03:31:10.113Z,953.52
2018-03-30T03:32:10.087Z,953.45
2018-03-30T03:33:10.067Z,953.50
2018-03-30T03:34:10.062Z,953.49
2018-03-30T03:35:10.055Z,953.47
2018-03-30T03:36:10.045Z,953.48
2018-03-30T03:37:10.045Z,953.49
2018-03-30T03:38:10.058Z,953.48
2018-03-30T03:39:10.023Z,953.50
2018-03-30T03:40:10.018Z,953.47
2018-03-30T03:41:10.006Z,953.49
2018-03-30T03:42:09.999Z,953.54
2018-03-30T03:43:10.017Z,953.53
2018-03-30T03:44:09.983Z,953.56
2018-03-30T03:45:09.975Z,953.52
2018-03-30T03:46:09.968Z,953.52
2018-03-30T03:47:09.962Z,953.54
2018-03-30T03:48:09.949Z,953.53
2018-03-30T03:49:09.942Z,953.55
2018-03-30T03:50:09.940Z,953.50
2018-03-30T03:51:09.927Z,953.48
2018-03-30T03:52:09.918Z,953.48
2018-03-30T03:53:09.913Z,953.44
2018-03-30T03:54:09.908Z,953.43
2018-03-30T03:55:09.897Z,953.45
2018-03-30T03:56:09.890Z,953.41
2018-03-30T03:57:09.881Z,953.46
2018-03-30T03:58:09.872Z,953.41
2018-03-30T03:59:09.872Z,953.43
2018-03-30T04:00:09.872Z,953.40
2018-03-30T04:01:09.847Z,953.39
2018-03-30T04:02:09.841Z,953.38
2018-03-30T04:03:09.834Z,953.35
2018-03-30T04:04:09.823Z,953.33
2018-03-30T04:05:09.817Z,953.30
2018-03-30T04:06:09.815Z,953.30
2018-03-30T04:07:09.804Z,953.27
2018-03-30T04:08:09.802Z,953.28
2018-03-30T04:09:09.786Z,953.28
2018-03-30T04:10:09.784Z,953.27
2018-03-30T04:11:09.771Z,953.30
2018-03-30T04:12:09.762Z,953.27
2018-03-30T04:13:09.758Z,953.31
2018-03-30T04:14:09.748Z,953.35
2018-03-30T04:15:09.740Z,953.31
2018-03-30T04:16:09.730Z,953.30
2018-03-30T04:17:09.723Z,953.32
2018-03-30T04:18:09.714Z,953.29
2018-03-30T04:19:09.710Z,953.32
2018-03-30T04:20:09.701Z,953.33
2018-03-30T04:21:09.693Z,953.29
2018-03-30T04:22:09.685Z,953.29
2018-03-30T04:23:09.677Z,953.26
2018-03-30T04:24:09.668Z,953.29
2018-03-30T04:25:09.660Z,953.27
2018-03-30T04:26:09.657Z,953.33
2018-03-30T04:27:09.647Z,953.35
2018-03-30T04:28:09.635Z,953.37
2018-03-30T04:29:09.632Z,953.35
2018-03-30T04:30:09.622Z,953.27
2018-03-30T04:31:09.614Z,953.29
2018-03-30T04:32:09.606Z,953.30
2018-03-30T04:33:09.598Z,953.29
2018-03-30T04:34:09.593Z,953.27
2018-03-30T04:35:09.583Z,953.26
2018-03-30T04:36:09.576Z,953.27
2018-03-30T04:37:09.566Z,953.26
2018-03-30T04:38:09.559Z,953.29
2018-03-30T04:39:09.551Z,953.26
2018-03-30T04:40:09.548Z,953.31
2018-03-30T04:41:09.545Z,953.32
2018-03-30T04:42:09.530Z,953.41
2018-03-30T04:43:09.533Z,953.39
2018-03-30T04:44:09.512Z,953.38
2018-03-30T04:45:09.501Z,953.34
2018-03-30T04:46:09.496Z,953.41
2018-03-30T04:47:09.488Z,953.42
2018-03-30T04:48:09.478Z,953.42
2018-03-30T04:49:09.473Z,953.47
2018-03-30T04:50:09.468Z,953.44
2018-03-30T04:51:09.460Z,953.49
2018-03-30T04:52:09.448Z,953.47
2018-03-30T04:53:09.440Z,953.47
2018-03-30T04:54:09.433Z,953.50
2018-03-30T04:55:09.430Z,953.43
2018-03-30T04:56:09.417Z,953.47
2018-03-30T04:57:09.413Z,953.46
2018-03-30T04:58:09.406Z,953.42
2018-03-30T04:59:09.395Z,953.41
2018-03-30T05:00:09.385Z,953.36
2018-03-30T05:01:09.384Z,953.37
2018-03-30T05:02:09.369Z,953.40
2018-03-30T05:03:09.361Z,953.39
2018-03-30T05:04:09.355Z,953.36
2018-03-30T05:05:09.347Z,953.37
2018-03-30T05:06:09.340Z,953.37
2018-03-30T05:07:09.332Z,953.35
2018-03-30T05:08:09.323Z,953.34
2018-03-30T05:09:09.314Z,953.32
2018-03-30T05:10:09.308Z,953.40
2018-03-30T05:11:09.300Z,953.37
2018-03-30T05:12:09.288Z,953.30
2018-03-30T05:13:09.287Z,953.27
2018-03-30T05:14:09.278Z,953.33
2018-03-30T05:15:09.268Z,953.30
2018-03-30T05:16:09.261Z,953.24
2018-03-30T05:17:09.252Z,953.27
2018-03-30T05:18:09.245Z,953.27
2018-03-30T05:19:09.237Z,953.28
2018-03-30T05:20:09.246Z,953.24
2018-03-30T05:21:09.220Z,953.23
2018-03-30T05:22:09.215Z,953.24
2018-03-30T05:23:09.207Z,953.16
2018-03-30T05:24:09.199Z,953.19
2018-03-30T05:25:09.193Z,953.19
2018-03-30T05:26:09.184Z,953.21
2018-03-30T05:27:09.195Z,953.19
2018-03-30T05:28:09.169Z,953.13
2018-03-30T05:29:09.160Z,953.13
2018-03-30T05:30:09.155Z,953.13
2018-03-30T05:31:09.148Z,953.09
2018-03-30T05:32:09.134Z,953.12
2018-03-30T05:33:09.132Z,953.11
2018-03-30T05:34:09.118Z,953.11
2018-03-30T05:35:09.112Z,953.11
2018-03-30T05:36:09.108Z,953.08
2018-03-30T05:37:09.097Z,953.13
2018-03-30T05:38:09.092Z,953.15
2018-03-30T05:39:09.081Z,953.14
2018-03-30T05:40:09.074Z,953.11
2018-03-30T05:41:09.075Z,953.16
2018-03-30T05:42:09.058Z,953.17
2018-03-30T05:43:09.052Z,953.16
2018-03-30T05:44:09.053Z,953.17
2018-03-30T05:45:09.034Z,953.17
2018-03-30T05:46:09.030Z,953.20
2018-03-30T05:47:09.022Z,953.24
2018-03-30T05:48:09.016Z,953.26
2018-03-30T05:49:09.005Z,953.26
2018-03-30T05:50:08.999Z,953.31
2018-03-30T05:51:08.991Z,953.30
2018-03-30T05:52:08.981Z,953.29
2018-03-30T05:53:08.975Z,953.36
2018-03-30T05:54:08.972Z,953.37
2018-03-30T05:55:09.788Z,953.36
2018-03-30T05:56:08.952Z,953.37
2018-03-30T05:57:08.948Z,953.35
2018-03-30T05:58:08.941Z,953.41
2018-03-30T05:59:08.935Z,953.46
2018-03-30T06:00:08.924Z,953.45
2018-03-30T06:01:08.919Z,953.47
2018-03-30T06:02:08.919Z,953.45
2018-03-30T06:03:08.904Z,953.45
2018-03-30T06:04:08.892Z,953.48
2018-03-30T06:05:08.893Z,953.41
2018-03-30T06:06:08.880Z,953.42
2018-03-30T06:07:08.875Z,953.41
2018-03-30T06:08:08.896Z,953.42
2018-03-30T06:09:08.862Z,953.42
2018-03-30T06:10:08.852Z,953.47
2018-03-30T06:11:09.762Z,953.44
2018-03-30T06:12:08.837Z,953.47
2018-03-30T06:13:08.829Z,953.48
2018-03-30T06:14:08.826Z,953.51
2018-03-30T06:15:08.818Z,953.48
2018-03-30T06:16:08.811Z,953.49
2018-03-30T06:17:08.809Z,953.48
2018-03-30T06:18:08.803Z,953.47
2018-03-30T06:19:08.873Z,953.46
2018-03-30T06:20:08.782Z,953.45
2018-03-30T06:21:08.782Z,953.47
2018-03-30T06:22:08.777Z,953.44
2018-03-30T06:23:08.767Z,953.44
2018-03-30T06:24:08.761Z,953.42
2018-03-30T06:25:08.749Z,953.38
2018-03-30T06:26:08.750Z,953.42
2018-03-30T06:27:08.773Z,953.41
2018-03-30T06:28:08.728Z,953.39
2018-03-30T06:29:08.723Z,953.39
2018-03-30T06:30:08.717Z,953.39
2018-03-30T06:31:08.720Z,953.40
2018-03-30T06:32:08.704Z,953.36
2018-03-30T06:33:08.698Z,953.35
2018-03-30T06:34:08.760Z,953.36
2018-03-30T06:35:08.687Z,953.37
2018-03-30T06:36:08.689Z,953.42
2018-03-30T06:37:08.676Z,953.42
2018-03-30T06:38:08.669Z,953.46
2018-03-30T06:39:08.665Z,953.43
2018-03-30T06:40:08.654Z,953.41
2018-03-30T06:41:08.647Z,953.42
2018-03-30T06:42:08.642Z,953.41
2018-03-30T06:43:08.643Z,953.41
2018-03-30T06:44:08.689Z,953.43
2018-03-30T06:45:08.649Z,953.38
2018-03-30T06:46:08.619Z,953.42
2018-03-30T06:47:08.615Z,953.46
2018-03-30T06:48:08.608Z,953.41
2018-03-30T06:49:08.605Z,953.43
2018-03-30T06:50:08.627Z,953.45
2018-03-30T06:51:08.597Z,953.47
2018-03-30T06:52:08.585Z,953.42
2018-03-30T06:53:08.602Z,953.44
2018-03-30T06:54:08.575Z,953.36
2018-03-30T06:55:08.572Z,953.38
2018-03-30T06:56:08.577Z,953.36
2018-03-30T06:57:08.969Z,953.37
2018-03-30T06:58:08.556Z,953.38
2018-03-30T06:59:08.579Z,953.33
2018-03-30T07:00:08.582Z,953.32
2018-03-30T07:01:08.539Z,953.31
2018-03-30T07:02:08.536Z,953.32
2018-03-30T07:03:08.535Z,953.33
2018-03-30T07:04:08.530Z,953.34
2018-03-30T07:05:08.522Z,953.31
2018-03-30T07:06:08.525Z,953.37
2018-03-30T07:07:08.516Z,953.36
2018-03-30T07:08:08.515Z,953.39
2018-03-30T07:09:08.538Z,953.41
2018-03-30T07:10:08.505Z,953.41
2018-03-30T07:11:08.504Z,953.37
2018-03-30T07:12:08.502Z,953.38
2018-03-30T07:13:08.510Z,953.45
2018-03-30T07:14:08.495Z,953.37
2018-03-30T07:15:08.499Z,953.41
2018-03-30T07:16:08.545Z,953.40
2018-03-30T07:17:08.490Z,953.41
2018-03-30T07:18:08.487Z,953.38
2018-03-30T07:19:08.482Z,953.41
2018-03-30T07:20:08.493Z,953.40
2018-03-30T07:21:08.474Z,953.34
2018-03-30T07:22:08.474Z,953.31
2018-03-30T07:23:08.533Z,953.41
2018-03-30T07:24:08.494Z,953.31
2018-03-30T07:25:08.498Z,953.34
2018-03-30T07:26:08.472Z,953.37
2018-03-30T07:27:08.482Z,953.34
2018-03-30T07:28:08.482Z,953.34
2018-03-30T07:29:08.460Z,953.32
2018-03-30T07:30:08.482Z,953.31
2018-03-30T07:31:08.455Z,953.26
2018-03-30T07:32:08.452Z,953.27
2018-03-30T07:33:08.450Z,953.17
2018-03-30T07:34:08.464Z,953.20
2018-03-30T07:35:08.445Z,953.13
2018-03-30T07:36:08.440Z,953.17
2018-03-30T07:37:08.438Z,953.15
2018-03-30T07:38:08.435Z,953.11
2018-03-30T07:39:08.432Z,953.10
2018-03-30T07:40:08.428Z,953.12
2018-03-30T07:41:08.426Z,953.08
2018-03-30T07:42:08.434Z,953.03
2018-03-30T07:43:08.450Z,953.12
2018-03-30T07:44:08.476Z,953.12
2018-03-30T07:45:08.416Z,953.07
2018-03-30T07:46:08.440Z,953.07
2018-03-30T07:47:08.434Z,953.08
2018-03-30T07:48:08.452Z,953.18
2018-03-30T07:49:08.432Z,953.13
2018-03-30T07:50:08.406Z,953.16
2018-03-30T07:51:08.403Z,953.18
2018-03-30T07:52:08.407Z,953.13
2018-03-30T07:53:08.413Z,953.16
2018-03-30T07:54:08.409Z,953.21
2018-03-30T07:55:08.409Z,953.23
2018-03-30T07:56:08.406Z,953.22
2018-03-30T07:57:08.408Z,953.21
2018-03-30T07:58:08.406Z,953.20
2018-03-30T07:59:08.418Z,953.14
2018-03-30T08:00:08.414Z,953.19
2018-03-30T08:01:08.417Z,953.17
2018-03-30T08:02:08.417Z,953.15
2018-03-30T08:03:08.419Z,953.15
2018-03-30T08:04:08.427Z,953.09
2018-03-30T08:05:08.423Z,953.08
2018-03-30T08:06:08.428Z,953.02
2018-03-30T08:07:08.433Z,953.06
2018-03-30T08:08:08.436Z,952.96
2018-03-30T08:09:08.442Z,952.98
2018-03-30T08:10:08.445Z,952.96
2018-03-30T08:11:08.442Z,953.05
2018-03-30T08:12:08.451Z,953.05
2018-03-30T08:13:08.448Z,953.05
2018-03-30T08:14:08.451Z,953.04
2018-03-30T08:15:08.451Z,953.00
2018-03-30T08:16:08.455Z,952.97
2018-03-30T08:17:08.461Z,952.97
2018-03-30T08:18:08.465Z,952.98
2018-03-30T08:19:08.466Z,952.96
2018-03-30T08:20:08.470Z,952.95
2018-03-30T08:21:08.479Z,952.97
2018-03-30T08:22:08.482Z,952.95
2018-03-30T08:23:08.482Z,952.95
2018-03-30T08:24:08.493Z,952.96
2018-03-30T08:25:08.490Z,952.90
2018-03-30T08:26:08.524Z,952.89
2018-03-30T08:27:08.570Z,952.92
2018-03-30T08:28:08.506Z,952.91
2018-03-30T08:29:08.513Z,952.91
2018-03-30T08:30:08.520Z,952.89
2018-03-30T08:31:08.527Z,952.88
2018-03-30T08:32:08.529Z,952.87
2018-03-30T08:33:08.535Z,952.88
2018-03-30T08:34:08.542Z,952.85
2018-03-30T08:35:08.554Z,952.86
2018-03-30T08:36:08.553Z,952.83
2018-03-30T08:37:08.560Z,952.79
2018-03-30T08:38:08.568Z,952.82
2018-03-30T08:39:08.574Z,952.85
2018-03-30T08:40:08.578Z,952.80
2018-03-30T08:41:08.584Z,952.81
2018-03-30T08:42:08.589Z,952.83
2018-03-30T08:43:08.595Z,952.72
2018-03-30T08:44:08.615Z,952.75
2018-03-30T08:45:08.611Z,952.77
2018-03-30T08:46:08.613Z,952.78
2018-03-30T08:47:08.620Z,952.74
2018-03-30T08:48:08.629Z,952.81
2018-03-30T08:49:08.629Z,952.75
2018-03-30T08:50:08.635Z,952.76
2018-03-30T08:51:08.642Z,952.77
2018-03-30T08:52:08.646Z,952.76
2018-03-30T08:53:08.650Z,952.77
2018-03-30T08:54:08.655Z,952.78
2018-03-30T08:55:08.659Z,952.72
2018-03-30T08:56:08.661Z,952.77
2018-03-30T08:57:08.664Z,952.71
2018-03-30T08:58:08.668Z,952.70
2018-03-30T08:59:08.673Z,952.71
2018-03-30T09:00:08.679Z,952.75
2018-03-30T09:01:08.678Z,952.82
2018-03-30T09:02:08.714Z,952.83
2018-03-30T09:03:08.690Z,952.79
2018-03-30T09:04:08.688Z,952.85
2018-03-30T09:05:08.692Z,952.78
2018-03-30T09:06:08.696Z,952.75
2018-03-30T09:07:08.701Z,952.80
2018-03-30T09:08:08.705Z,952.68
2018-03-30T09:09:08.705Z,952.72
2018-03-30T09:10:08.716Z,952.70
2018-03-30T09:11:08.713Z,952.84
2018-03-30T09:12:08.716Z,952.83
2018-03-30T09:13:08.734Z,952.65
2018-03-30T09:14:08.723Z,952.64
2018-03-30T09:15:08.727Z,952.71
2018-03-30T09:16:08.730Z,952.84
2018-03-30T09:17:08.734Z,952.74
2018-03-30T09:18:08.741Z,952.66
2018-03-30T09:19:08.746Z,952.64
2018-03-30T09:20:08.751Z,952.81
2018-03-30T09:21:08.755Z,952.68
2018-03-30T09:22:08.756Z,952.80
2018-03-30T09:23:08.777Z,952.59
2018-03-30T09:24:08.778Z,952.76
2018-03-30T09:25:08.765Z,952.76
2018-03-30T09:26:08.774Z,952.80
2018-03-30T09:27:08.830Z,952.73
2018-03-30T09:28:08.778Z,952.49
2018-03-30T09:29:08.785Z,952.45
2018-03-30T09:30:08.788Z,952.41
2018-03-30T09:31:08.817Z,952.42
2018-03-30T09:32:08.802Z,952.37
2018-03-30T09:33:08.800Z,952.36
2018-03-30T09:34:08.811Z,952.33
2018-03-30T09:35:08.811Z,952.51
2018-03-30T09:36:08.839Z,952.54
2018-03-30T09:37:08.824Z,952.57
2018-03-30T09:38:08.823Z,952.54
2018-03-30T09:39:08.824Z,952.42
2018-03-30T09:40:08.829Z,952.26
2018-03-30T09:41:08.835Z,952.24
2018-03-30T09:42:08.842Z,952.22
2018-03-30T09:43:08.850Z,952.31
2018-03-30T09:44:08.849Z,952.45
2018-03-30T09:45:08.864Z,952.24
2018-03-30T09:46:08.866Z,952.13
2018-03-30T09:47:08.869Z,952.21
2018-03-30T09:48:08.877Z,952.28
2018-03-30T09:49:08.876Z,952.25
2018-03-30T09:50:08.881Z,952.05
2018-03-30T09:51:08.887Z,952.01
2018-03-30T09:52:08.893Z,952.06
2018-03-30T09:53:08.898Z,952.02
2018-03-30T09:54:08.905Z,952.05
2018-03-30T09:55:08.909Z,952.07
2018-03-30T09:56:08.925Z,952.00
2018-03-30T09:57:08.917Z,951.97
2018-03-30T09:58:08.921Z,951.96
2018-03-30T09:59:08.925Z,951.94
2018-03-30T10:00:08.927Z,951.95
2018-03-30T10:01:08.933Z,952.00
2018-03-30T10:02:08.978Z,952.03
2018-03-30T10:03:08.943Z,951.86
2018-03-30T10:04:08.942Z,951.82
2018-03-30T10:05:08.951Z,951.82
2018-03-30T10:06:08.948Z,951.83
2018-03-30T10:07:08.954Z,951.86
2018-03-30T10:08:08.969Z,951.84
2018-03-30T10:09:08.958Z,951.90
2018-03-30T10:10:08.962Z,951.87
2018-03-30T10:11:08.964Z,951.92
2018-03-30T10:12:08.966Z,951.89
2018-03-30T10:13:08.971Z,951.83
2018-03-30T10:14:08.972Z,951.77
2018-03-30T10:15:08.977Z,951.78
2018-03-30T10:16:08.977Z,951.77
2018-03-30T10:17:08.980Z,951.72
2018-03-30T10:18:09.038Z,951.73
2018-03-30T10:19:08.985Z,951.81
2018-03-30T10:20:08.993Z,951.68
2018-03-30T10:21:09.021Z,951.71
2018-03-30T10:22:08.991Z,951.63
2018-03-30T10:23:08.992Z,951.72
2018-03-30T10:24:08.996Z,951.75
2018-03-30T10:25:08.997Z,951.67
2018-03-30T10:26:08.998Z,951.61
2018-03-30T10:27:09.005Z,951.64
2018-03-30T10:28:09.017Z,951.69
2018-03-30T10:29:09.005Z,951.59
2018-03-30T10:30:09.007Z,951.63
2018-03-30T10:31:09.012Z,951.66
2018-03-30T10:32:09.011Z,951.68
2018-03-30T10:33:09.014Z,951.64
2018-03-30T10:34:09.015Z,951.55
2018-03-30T10:35:09.034Z,951.55
2018-03-30T10:36:09.021Z,951.59
2018-03-30T10:37:09.019Z,951.50
2018-03-30T10:38:09.023Z,951.58
2018-03-30T10:39:09.026Z,951.43
2018-03-30T10:40:09.024Z,951.52
2018-03-30T10:41:09.026Z,951.53
2018-03-30T10:42:09.028Z,951.47
2018-03-30T10:43:09.031Z,951.45
2018-03-30T10:44:09.034Z,951.48
2018-03-30T10:45:09.031Z,951.45
2018-03-30T10:46:09.034Z,951.45
2018-03-30T10:47:09.063Z,951.36
2018-03-30T10:48:09.047Z,951.38
2018-03-30T10:49:09.040Z,951.39
2018-03-30T10:50:09.065Z,951.34
2018-03-30T10:51:09.048Z,951.37
2018-03-30T10:52:09.048Z,951.38
2018-03-30T10:53:09.052Z,951.40
2018-03-30T10:54:09.047Z,951.40
2018-03-30T10:55:09.064Z,951.33
2018-03-30T10:56:09.051Z,951.37
2018-03-30T10:57:09.055Z,951.28
2018-03-30T10:58:09.051Z,951.32
2018-03-30T10:59:09.053Z,951.28
2018-03-30T11:00:09.056Z,951.23
2018-03-30T11:01:09.059Z,951.21
2018-03-30T11:02:09.081Z,951.19
2018-03-30T11:03:09.076Z,951.14
2018-03-30T11:04:09.062Z,951.19
2018-03-30T11:05:09.093Z,951.12
2018-03-30T11:06:09.070Z,951.22
2018-03-30T11:07:09.086Z,951.13
2018-03-30T11:08:09.096Z,951.24
2018-03-30T11:09:09.071Z,951.17
2018-03-30T11:10:09.080Z,951.15
2018-03-30T11:11:09.083Z,951.11
2018-03-30T11:12:09.077Z,951.11
2018-03-30T11:13:09.103Z,951.09
2018-03-30T11:14:09.093Z,951.09
2018-03-30T11:15:09.089Z,951.09
2018-03-30T11:16:09.089Z,951.06
2018-03-30T11:17:09.090Z,951.07
2018-03-30T11:18:09.095Z,950.99
2018-03-30T11:19:09.101Z,950.99
2018-03-30T11:20:09.107Z,950.96
2018-03-30T11:21:09.099Z,950.94
2018-03-30T11:22:09.102Z,950.97
2018-03-30T11:23:09.106Z,950.93
2018-03-30T11:24:09.110Z,950.85
2018-03-30T11:25:09.120Z,950.77
2018-03-30T11:26:09.117Z,950.82
2018-03-30T11:27:09.130Z,950.80
2018-03-30T11:28:09.137Z,950.73
2018-03-30T11:29:09.123Z,950.72
2018-03-30T11:30:09.132Z,950.67
2018-03-30T11:31:09.125Z,950.65
2018-03-30T11:32:09.138Z,950.63
2018-03-30T11:33:09.130Z,950.68
2018-03-30T11:34:09.135Z,950.63
2018-03-30T11:35:09.136Z,950.59
2018-03-30T11:36:09.146Z,950.57
2018-03-30T11:37:09.151Z,950.55
2018-03-30T11:38:09.156Z,950.46
2018-03-30T11:39:09.155Z,950.43
2018-03-30T11:40:09.158Z,950.39
2018-03-30T11:41:09.160Z,950.35
2018-03-30T11:42:09.165Z,950.30
2018-03-30T11:43:09.158Z,950.28
2018-03-30T11:44:09.157Z,950.29
2018-03-30T11:45:09.159Z,950.34
2018-03-30T11:46:09.162Z,950.34
2018-03-30T11:47:09.165Z,950.24
2018-03-30T11:48:09.174Z,950.23
2018-03-30T11:49:09.171Z,950.14
2018-03-30T11:50:09.172Z,950.13
2018-03-30T11:51:09.181Z,950.13
2018-03-30T11:52:09.197Z,950.14
2018-03-30T11:53:09.188Z,950.20
2018-03-30T11:54:09.185Z,950.23
2018-03-30T11:55:09.185Z,950.11
2018-03-30T11:56:09.189Z,950.11
2018-03-30T11:57:09.190Z,950.11
2018-03-30T11:58:09.197Z,950.13
2018-03-30T11:59:09.196Z,950.19
2018-03-30T12:00:09.198Z,950.21
2018-03-30T12:01:09.201Z,950.10
2018-03-30T12:02:09.203Z,950.10
2018-03-30T12:03:09.206Z,950.17
2018-03-30T12:04:09.208Z,950.13
2018-03-30T12:05:09.212Z,950.11
2018-03-30T12:06:09.216Z,950.07
2018-03-30T12:07:09.215Z,950.08
2018-03-30T12:08:09.217Z,950.12
2018-03-30T12:09:09.219Z,950.14
2018-03-30T12:10:09.221Z,950.09
2018-03-30T12:11:09.225Z,950.12
2018-03-30T12:12:09.237Z,950.07
2018-03-30T12:13:09.229Z,950.10
2018-03-30T12:14:09.230Z,950.05
2018-03-30T12:15:09.234Z,949.97
2018-03-30T12:16:09.237Z,949.93
2018-03-30T12:17:09.239Z,949.89
2018-03-30T12:18:09.242Z,949.89
2018-03-30T12:19:09.244Z,949.86
2018-03-30T12:20:09.243Z,949.90
2018-03-30T12:21:09.248Z,949.82
2018-03-30T12:22:09.251Z,949.85
2018-03-30T12:23:09.253Z,949.89
2018-03-30T12:24:09.253Z,949.94
2018-03-30T12:25:09.259Z,949.83
2018-03-30T12:26:09.261Z,949.80
2018-03-30T12:27:09.264Z,949.81
2018-03-30T12:28:09.267Z,949.81